Time;durP1;ratioP1;P1;durP2;ratioP2;P2;SDS_P1;SDS_P2;PMS_P1;PMS_P2;Temp;Humidity;BMP_temperature;BMP_pressure;BME280_temperature;BME280_humidity;BME280_pressure;Samples;Min_cycle;Max_cycle;Signal;HPM_P1;HPM_P2
2022/04/15 00:01:40;;;;;;;10.77;4.60;;;;;;;;;;6101857;29;20226;-77
2022/04/15 00:05:01;;;;;;;4.57;4.17;;;;;;;;;;6098599;29;20232;-77
2022/04/15 00:08:23;;;;;;;3.77;3.47;;;;;;;;;;6107733;29;20235;-76
2022/04/15 00:11:44;;;;;;;4.40;3.90;;;;;;;;;;6106809;29;20247;-76
2022/04/15 00:15:06;;;;;;;3.80;3.33;;;;;;;;;;6106710;29;20231;-77
2022/04/15 00:18:27;;;;;;;4.60;4.20;;;;;;;;;;6102711;29;20220;-77
2022/04/15 00:21:47;;;;;;;5.63;4.00;;;;;;;;;;6099039;29;20225;-75
2022/04/15 00:25:10;;;;;;;4.93;4.40;;;;;;;;;;6099381;29;20248;-76
2022/04/15 00:28:31;;;;;;;7.03;4.77;;;;;;;;;;6102701;29;20228;-75
2022/04/15 00:31:51;;;;;;;6.00;5.50;;;;;;;;;;6097590;29;20236;-76
2022/04/15 00:35:12;;;;;;;7.40;5.73;;;;;;;;;;6103883;29;20223;-76
2022/04/15 00:38:34;;;;;;;5.60;4.83;;;;;;;;;;6100677;29;20225;-76
2022/04/15 00:41:57;;;;;;;6.87;6.13;;;;;;;;;;6101701;29;20224;-75
2022/04/15 00:45:18;;;;;;;6.63;6.03;;;;;;;;;;6097580;29;20232;-76
2022/04/15 00:48:39;;;;;;;9.60;6.57;;;;;;;;;;6106398;29;20240;-76
2022/04/15 00:52:00;;;;;;;9.80;7.97;;;;;;;;;;6101839;29;20224;-75
2022/04/15 00:55:21;;;;;;;6.40;5.70;;;;;;;;;;6097759;29;20236;-77
2022/04/15 00:58:44;;;;;;;7.37;5.60;;;;;;;;;;6097432;29;22035;-77
2022/04/15 01:02:05;;;;;;;5.97;5.07;;;;;;;;;;6097755;29;20225;-76
2022/04/15 01:05:26;;;;;;;5.13;4.63;;;;;;;;;;6096129;29;20229;-76
2022/04/15 01:08:48;;;;;;;6.70;5.47;;;;;;;;;;6098283;29;20240;-77
2022/04/15 01:12:09;;;;;;;6.10;4.97;;;;;;;;;;6097103;29;20350;-76
2022/04/15 01:15:31;;;;;;;6.57;4.80;;;;;;;;;;6094566;29;20491;-76
2022/04/15 01:18:52;;;;;;;6.90;4.80;;;;;;;;;;6099351;29;20232;-76
2022/04/15 01:22:15;;;;;;;8.07;5.43;;;;;;;;;;6092788;29;20232;-76
2022/04/15 01:25:37;;;;;;;4.87;3.57;;;;;;;;;;6102622;29;20229;-76
2022/04/15 01:28:58;;;;;;;5.83;4.30;;;;;;;;;;6098734;29;20273;-76
2022/04/15 01:32:18;;;;;;;5.77;4.30;;;;;;;;;;6096528;29;20244;-75
2022/04/15 01:35:39;;;;;;;5.90;4.53;;;;;;;;;;6109774;29;20233;-76
2022/04/15 01:39:00;;;;;;;5.30;4.63;;;;;;;;;;6102361;29;20224;-76
2022/04/15 01:42:22;;;;;;;5.57;5.03;;;;;;;;;;6098016;29;20315;-76
2022/04/15 01:45:42;;;;;;;6.67;5.87;;;;;;;;;;6102308;29;20236;-76
2022/04/15 01:49:03;;;;;;;6.93;5.17;;;;;;;;;;6096900;29;20256;-76
2022/04/15 01:52:23;;;;;;;8.40;6.93;;;;;;;;;;6086183;29;20232;-76
2022/04/15 01:55:44;;;;;;;6.57;5.37;;;;;;;;;;6101562;29;20240;-77
2022/04/15 01:59:09;;;;;;;6.77;5.63;;;;;;;;;;6101333;29;20232;-76
2022/04/15 02:02:29;;;;;;;5.23;4.73;;;;;;;;;;6094063;29;20240;-76
2022/04/15 02:05:50;;;;;;;8.03;5.73;;;;;;;;;;6098190;29;20321;-77
2022/04/15 02:09:11;;;;;;;7.80;7.07;;;;;;;;;;6073669;29;20233;-76
2022/04/15 02:12:31;;;;;;;9.00;7.13;;;;;;;;;;6097319;29;20889;-77
2022/04/15 02:15:53;;;;;;;11.07;8.73;;;;;;;;;;6098789;29;20251;-76
2022/04/15 02:19:14;;;;;;;9.77;8.43;;;;;;;;;;6095631;29;20229;-76
2022/04/15 02:22:35;;;;;;;11.83;9.33;;;;;;;;;;6091673;29;20778;-76
2022/04/15 02:25:55;;;;;;;10.10;9.13;;;;;;;;;;6094303;29;20244;-76
2022/04/15 02:29:16;;;;;;;12.43;9.13;;;;;;;;;;6095547;29;20240;-76
2022/04/15 02:32:37;;;;;;;9.10;8.20;;;;;;;;;;6102698;29;20232;-76
2022/04/15 02:35:58;;;;;;;10.73;9.73;;;;;;;;;;6100257;29;20224;-76
2022/04/15 02:39:19;;;;;;;9.57;8.53;;;;;;;;;;6101742;29;20862;-77
2022/04/15 02:42:39;;;;;;;9.53;8.27;;;;;;;;;;6091881;29;20237;-76
2022/04/15 02:46:00;;;;;;;10.40;9.27;;;;;;;;;;6094376;29;20276;-77
2022/04/15 02:49:22;;;;;;;10.57;8.83;;;;;;;;;;6096150;29;20319;-77
2022/04/15 02:52:42;;;;;;;10.90;8.07;;;;;;;;;;6094636;29;20513;-77
2022/04/15 02:56:03;;;;;;;8.00;7.23;;;;;;;;;;6094287;29;20263;-76
2022/04/15 02:59:24;;;;;;;9.10;7.67;;;;;;;;;;6097355;29;20228;-76
2022/04/15 03:02:44;;;;;;;9.30;7.40;;;;;;;;;;6088846;29;20233;-76
2022/04/15 03:06:06;;;;;;;13.23;7.37;;;;;;;;;;6089273;29;20232;-76
2022/04/15 03:09:27;;;;;;;18.43;9.20;;;;;;;;;;6098455;29;20245;-77
2022/04/15 03:12:48;;;;;;;12.27;7.73;;;;;;;;;;6095627;29;20244;-76
2022/04/15 03:16:08;;;;;;;7.60;6.90;;;;;;;;;;6095005;29;20244;-77
2022/04/15 03:19:29;;;;;;;10.57;7.97;;;;;;;;;;6098974;29;20230;-77
2022/04/15 03:22:51;;;;;;;8.67;6.80;;;;;;;;;;6093309;29;20229;-76
2022/04/15 03:26:12;;;;;;;8.27;6.47;;;;;;;;;;6100388;29;20240;-77
2022/04/15 03:29:32;;;;;;;9.17;8.23;;;;;;;;;;6095688;29;20241;-77
2022/04/15 03:32:53;;;;;;;8.77;8.03;;;;;;;;;;6096482;29;20233;-76
2022/04/15 03:36:14;;;;;;;8.87;7.97;;;;;;;;;;6092225;29;20236;-76
2022/04/15 03:39:36;;;;;;;9.80;8.90;;;;;;;;;;6095993;29;20232;-75
2022/04/15 03:42:57;;;;;;;9.43;8.57;;;;;;;;;;6092720;29;20320;-76
2022/04/15 03:46:17;;;;;;;11.90;8.60;;;;;;;;;;6098366;29;20240;-76
2022/04/15 03:49:38;;;;;;;12.87;8.87;;;;;;;;;;6092543;29;20241;-75
2022/04/15 03:52:58;;;;;;;10.20;9.03;;;;;;;;;;6084348;29;20284;-76
2022/04/15 03:56:20;;;;;;;9.73;8.93;;;;;;;;;;6099197;29;20671;-76
2022/04/15 03:59:41;;;;;;;10.27;9.23;;;;;;;;;;6091078;29;20241;-76
2022/04/15 04:03:01;;;;;;;9.80;8.00;;;;;;;;;;6097685;29;20279;-77
2022/04/15 04:06:22;;;;;;;15.63;10.90;;;;;;;;;;6099899;29;20320;-76
2022/04/15 04:09:42;;;;;;;11.07;9.97;;;;;;;;;;6099768;29;20241;-75
2022/04/15 04:13:04;;;;;;;12.77;11.40;;;;;;;;;;6087419;29;20239;-77
2022/04/15 04:16:24;;;;;;;11.17;10.07;;;;;;;;;;6092002;29;20232;-75
2022/04/15 04:19:46;;;;;;;11.70;10.67;;;;;;;;;;6092186;29;20261;-76
2022/04/15 04:23:07;;;;;;;15.20;13.60;;;;;;;;;;6097430;29;20259;-77
2022/04/15 04:26:27;;;;;;;14.83;13.33;;;;;;;;;;6096082;29;20236;-76
2022/04/15 04:29:49;;;;;;;14.77;13.27;;;;;;;;;;6096073;29;20272;-75
2022/04/15 04:33:09;;;;;;;18.47;16.40;;;;;;;;;;6098893;29;20552;-75
2022/04/15 04:36:30;;;;;;;20.27;16.87;;;;;;;;;;6093797;29;20240;-76
2022/04/15 04:39:50;;;;;;;18.47;16.57;;;;;;;;;;6096976;29;20241;-76
2022/04/15 04:43:11;;;;;;;20.07;16.00;;;;;;;;;;6090517;29;20233;-75
2022/04/15 04:46:35;;;;;;;21.00;18.40;;;;;;;;;;6071770;29;20240;-78
2022/04/15 04:49:56;;;;;;;20.00;18.00;;;;;;;;;;6093198;29;20237;-75
2022/04/15 04:53:16;;;;;;;18.60;16.40;;;;;;;;;;6092956;29;20236;-78
2022/04/15 04:56:37;;;;;;;20.23;16.87;;;;;;;;;;6096646;29;20232;-77
2022/04/15 04:59:58;;;;;;;26.73;17.90;;;;;;;;;;6097804;29;20335;-75
2022/04/15 05:03:20;;;;;;;23.20;17.20;;;;;;;;;;6086321;29;20241;-78
2022/04/15 05:06:40;;;;;;;19.13;17.13;;;;;;;;;;6102778;29;20278;-77
2022/04/15 05:10:01;;;;;;;18.47;16.63;;;;;;;;;;6087498;29;20229;-77
2022/04/15 05:13:22;;;;;;;17.87;15.87;;;;;;;;;;6094214;29;20228;-77
2022/04/15 05:16:42;;;;;;;17.90;16.07;;;;;;;;;;6086020;29;20243;-77
2022/04/15 05:20:05;;;;;;;17.13;14.67;;;;;;;;;;6073005;29;20718;-77
2022/04/15 05:23:25;;;;;;;19.13;16.27;;;;;;;;;;6090745;29;20236;-77
2022/04/15 05:26:46;;;;;;;16.87;15.20;;;;;;;;;;6096040;29;20276;-77
2022/04/15 05:30:08;;;;;;;17.93;16.03;;;;;;;;;;6096511;29;20646;-77
2022/04/15 05:33:28;;;;;;;16.83;15.23;;;;;;;;;;6097883;29;20240;-76
2022/04/15 05:36:50;;;;;;;19.63;17.63;;;;;;;;;;6080473;29;20236;-76
2022/04/15 05:40:11;;;;;;;17.93;16.13;;;;;;;;;;6097093;29;20615;-77
2022/04/15 05:43:32;;;;;;;21.00;17.93;;;;;;;;;;6096372;29;20599;-77
2022/04/15 05:46:52;;;;;;;20.33;18.17;;;;;;;;;;6094605;29;20506;-76
2022/04/15 05:50:13;;;;;;;20.23;17.47;;;;;;;;;;6086198;29;20226;-76
2022/04/15 05:53:34;;;;;;;20.97;18.20;;;;;;;;;;6090368;29;20252;-76
2022/04/15 05:56:55;;;;;;;22.43;18.80;;;;;;;;;;6092985;29;20678;-77
2022/04/15 06:00:16;;;;;;;21.77;19.37;;;;;;;;;;6088983;29;20240;-77
2022/04/15 06:03:37;;;;;;;24.90;19.20;;;;;;;;;;6091787;29;20228;-76
2022/04/15 06:06:57;;;;;;;24.53;20.20;;;;;;;;;;6101957;29;20497;-77
2022/04/15 06:10:19;;;;;;;25.73;20.83;;;;;;;;;;6097996;29;20519;-78
2022/04/15 06:13:46;;;;;;;24.57;19.20;;;;;;;;;;6101326;29;21002;-77
2022/04/15 06:17:07;;;;;;;25.00;19.13;;;;;;;;;;6097787;29;20323;-77
2022/04/15 06:20:28;;;;;;;25.63;19.77;;;;;;;;;;6097958;29;20240;-77
2022/04/15 06:23:49;;;;;;;25.27;19.23;;;;;;;;;;6092950;29;20221;-78
2022/04/15 06:27:10;;;;;;;24.17;17.40;;;;;;;;;;6091308;29;20612;-75
2022/04/15 06:30:31;;;;;;;22.57;17.87;;;;;;;;;;6099409;29;20534;-76
2022/04/15 06:33:52;;;;;;;23.53;18.40;;;;;;;;;;6096981;29;20319;-77
2022/04/15 06:37:12;;;;;;;26.23;17.47;;;;;;;;;;6089801;29;20611;-77
2022/04/15 06:40:33;;;;;;;26.07;17.43;;;;;;;;;;6096850;29;20252;-77
2022/04/15 06:43:55;;;;;;;21.47;17.37;;;;;;;;;;6094182;29;20232;-77
2022/04/15 06:47:15;;;;;;;24.83;17.30;;;;;;;;;;6088883;29;20229;-78
2022/04/15 06:50:35;;;;;;;24.43;18.37;;;;;;;;;;6095818;29;20232;-77
2022/04/15 06:53:56;;;;;;;27.83;17.53;;;;;;;;;;6094887;29;20232;-77
2022/04/15 06:57:16;;;;;;;24.60;17.97;;;;;;;;;;6101071;29;20248;-78
2022/04/15 07:00:39;;;;;;;22.23;17.57;;;;;;;;;;6099604;29;20240;-77
2022/04/15 07:04:00;;;;;;;22.70;17.30;;;;;;;;;;6100699;29;20617;-77
2022/04/15 07:07:21;;;;;;;23.37;17.33;;;;;;;;;;6092124;29;20233;-77
2022/04/15 07:10:41;;;;;;;20.97;17.53;;;;;;;;;;6100932;29;20323;-77
2022/04/15 07:14:03;;;;;;;23.43;18.50;;;;;;;;;;6093283;29;20232;-77
2022/04/15 07:17:25;;;;;;;23.50;18.33;;;;;;;;;;6094234;29;20236;-77
2022/04/15 07:20:46;;;;;;;24.40;18.40;;;;;;;;;;6095299;29;20236;-77
2022/04/15 07:24:07;;;;;;;23.90;18.53;;;;;;;;;;6084625;29;20229;-77
2022/04/15 07:27:28;;;;;;;20.50;17.13;;;;;;;;;;6088541;29;20240;-78
2022/04/15 07:30:48;;;;;;;22.30;18.40;;;;;;;;;;6099141;29;20296;-78
2022/04/15 07:34:10;;;;;;;19.20;16.50;;;;;;;;;;6099424;29;20324;-77
2022/04/15 07:37:31;;;;;;;23.87;17.27;;;;;;;;;;6098879;29;20240;-77
2022/04/15 07:40:51;;;;;;;21.70;18.60;;;;;;;;;;6096827;29;20241;-78
2022/04/15 07:44:12;;;;;;;22.07;17.70;;;;;;;;;;6080415;29;20228;-79
2022/04/15 07:47:33;;;;;;;22.37;18.87;;;;;;;;;;6094335;29;22294;-79
2022/04/15 07:50:56;;;;;;;24.13;18.93;;;;;;;;;;6097232;29;20224;-78
2022/04/15 07:54:17;;;;;;;21.00;18.67;;;;;;;;;;6101602;29;20279;-78
2022/04/15 07:57:37;;;;;;;19.77;17.47;;;;;;;;;;6091049;29;20221;-79
2022/04/15 08:00:59;;;;;;;20.40;18.07;;;;;;;;;;6099551;29;20228;-77
2022/04/15 08:04:20;;;;;;;17.90;15.93;;;;;;;;;;6092088;29;20240;-77
2022/04/15 08:07:42;;;;;;;17.03;13.73;;;;;;;;;;6094345;29;20233;-76
2022/04/15 08:11:03;;;;;;;18.27;14.70;;;;;;;;;;6097779;29;20351;-76
2022/04/15 08:14:23;;;;;;;17.07;14.07;;;;;;;;;;6097044;29;20255;-78
2022/04/15 08:17:44;;;;;;;15.07;13.53;;;;;;;;;;6098276;29;20232;-78
2022/04/15 08:21:04;;;;;;;16.70;14.63;;;;;;;;;;6090871;29;20332;-77
2022/04/15 08:24:26;;;;;;;16.43;14.43;;;;;;;;;;6090673;29;20236;-76
2022/04/15 08:27:46;;;;;;;16.63;14.93;;;;;;;;;;6099315;29;20236;-77
2022/04/15 08:31:08;;;;;;;18.20;15.20;;;;;;;;;;6092596;29;20237;-77
2022/04/15 08:34:28;;;;;;;17.67;15.83;;;;;;;;;;6094609;29;20251;-78
2022/04/15 08:37:49;;;;;;;16.07;14.43;;;;;;;;;;6093201;29;20224;-77
2022/04/15 08:41:13;;;;;;;16.30;14.43;;;;;;;;;;6098395;29;20568;-77
2022/04/15 08:44:33;;;;;;;15.83;14.33;;;;;;;;;;6103344;29;20248;-76
2022/04/15 08:47:57;;;;;;;18.23;16.23;;;;;;;;;;6091759;29;20764;-76
2022/04/15 08:51:18;;;;;;;14.27;12.93;;;;;;;;;;6094352;29;20232;-76
2022/04/15 08:54:38;;;;;;;18.50;16.60;;;;;;;;;;6097412;29;20566;-77
2022/04/15 08:58:00;;;;;;;18.20;15.23;;;;;;;;;;6093266;29;20606;-77
2022/04/15 09:01:21;;;;;;;15.97;14.37;;;;;;;;;;6092516;29;20252;-77
2022/04/15 09:04:41;;;;;;;15.73;14.30;;;;;;;;;;6091875;29;20236;-77
2022/04/15 09:08:04;;;;;;;17.10;15.03;;;;;;;;;;6095974;29;20236;-77
2022/04/15 09:11:29;;;;;;;17.73;15.77;;;;;;;;;;6092094;29;20619;-76
2022/04/15 09:14:51;;;;;;;17.40;15.27;;;;;;;;;;6091721;29;20228;-76
2022/04/15 09:18:11;;;;;;;15.97;14.37;;;;;;;;;;6097870;29;20261;-76
2022/04/15 09:21:32;;;;;;;17.23;15.60;;;;;;;;;;6097619;29;20310;-77
2022/04/15 09:24:53;;;;;;;18.87;16.93;;;;;;;;;;6095678;29;20562;-76
2022/04/15 09:28:13;;;;;;;18.23;16.30;;;;;;;;;;6091717;29;20329;-77
2022/04/15 09:31:35;;;;;;;17.63;15.80;;;;;;;;;;6093477;29;20240;-77
2022/04/15 09:34:57;;;;;;;18.63;16.53;;;;;;;;;;6095806;29;20650;-77
2022/04/15 09:38:17;;;;;;;19.10;16.33;;;;;;;;;;6101766;29;20236;-77
2022/04/15 09:41:38;;;;;;;18.00;16.20;;;;;;;;;;6100451;29;20237;-77
2022/04/15 09:45:11;;;;;;;16.90;15.07;;;;;;;;;;6102755;29;20615;-77
2022/04/15 09:48:33;;;;;;;16.20;14.70;;;;;;;;;;6102498;29;20236;-77
2022/04/15 09:51:56;;;;;;;17.50;15.43;;;;;;;;;;6101800;29;20228;-78
2022/04/15 09:55:18;;;;;;;17.57;15.77;;;;;;;;;;6094839;29;20229;-77
2022/04/15 09:58:40;;;;;;;18.77;16.97;;;;;;;;;;6099623;29;20233;-78
2022/04/15 10:02:02;;;;;;;20.97;18.93;;;;;;;;;;6095461;29;20974;-77
2022/04/15 10:05:24;;;;;;;18.03;16.23;;;;;;;;;;6093330;29;20233;-77
2022/04/15 10:08:45;;;;;;;18.03;16.13;;;;;;;;;;6078279;29;20232;-78
2022/04/15 10:12:06;;;;;;;17.47;15.87;;;;;;;;;;6093085;29;20261;-77
2022/04/15 10:15:29;;;;;;;19.80;16.43;;;;;;;;;;6100332;29;20294;-77
2022/04/15 10:18:51;;;;;;;18.00;16.17;;;;;;;;;;6100174;29;20229;-76
2022/04/15 10:22:14;;;;;;;21.13;17.23;;;;;;;;;;6091393;29;20237;-76
2022/04/15 10:25:35;;;;;;;22.40;17.10;;;;;;;;;;6094496;29;20240;-76
2022/04/15 10:28:56;;;;;;;19.47;17.57;;;;;;;;;;6101742;29;20236;-76
2022/04/15 10:32:17;;;;;;;17.30;15.63;;;;;;;;;;6096561;29;20500;-76
2022/04/15 10:35:40;;;;;;;18.27;16.37;;;;;;;;;;6100303;29;20237;-77
2022/04/15 10:39:15;;;;;;;18.83;16.83;;;;;;;;;;6096424;29;20630;-77
2022/04/15 10:42:44;;;;;;;20.17;17.33;;;;;;;;;;6070194;29;20240;-76
2022/04/15 10:46:12;;;;;;;17.77;15.93;;;;;;;;;;6098751;29;20240;-77
2022/04/15 10:49:35;;;;;;;17.13;15.43;;;;;;;;;;6097800;29;20501;-76
2022/04/15 10:53:10;;;;;;;18.40;15.33;;;;;;;;;;6096241;29;20244;-77
2022/04/15 10:56:52;;;;;;;20.97;18.77;;;;;;;;;;6085444;29;20256;-77
2022/04/15 11:04:09;;;;;;;16.77;15.07;;;;;;;;;;6047787;29;20237;-77
2022/04/15 11:07:30;;;;;;;16.97;15.27;;;;;;;;;;6049267;29;20245;-76
2022/04/15 11:11:03;;;;;;;19.73;17.10;;;;;;;;;;6103964;29;20695;-76
2022/04/15 11:14:41;;;;;;;16.90;15.30;;;;;;;;;;6091363;29;20245;-76
2022/04/15 11:18:13;;;;;;;17.87;16.00;;;;;;;;;;6091542;29;20311;-77
2022/04/15 11:21:36;;;;;;;16.30;14.70;;;;;;;;;;6093367;29;20232;-76
2022/04/15 11:24:57;;;;;;;16.93;15.17;;;;;;;;;;6100906;29;20595;-77
2022/04/15 11:28:19;;;;;;;20.47;16.20;;;;;;;;;;6086059;29;20752;-76
2022/04/15 11:31:40;;;;;;;16.97;14.83;;;;;;;;;;6092978;29;20252;-76
2022/04/15 11:35:04;;;;;;;16.57;14.80;;;;;;;;;;6096700;29;20285;-76
2022/04/15 11:38:25;;;;;;;14.87;12.23;;;;;;;;;;6099498;29;21061;-76
2022/04/15 11:41:47;;;;;;;13.83;12.27;;;;;;;;;;6096390;29;20229;-76
2022/04/15 11:45:12;;;;;;;13.83;10.83;;;;;;;;;;6098496;29;20236;-77
2022/04/15 11:48:32;;;;;;;13.40;10.77;;;;;;;;;;6078714;29;20233;-77
2022/04/15 11:51:55;;;;;;;14.87;12.27;;;;;;;;;;6090877;29;20268;-76
2022/04/15 11:55:16;;;;;;;16.10;14.43;;;;;;;;;;6094489;29;20236;-77
2022/04/15 11:58:38;;;;;;;11.90;10.10;;;;;;;;;;6093596;29;20257;-78
2022/04/15 12:02:01;;;;;;;13.33;11.10;;;;;;;;;;6097251;29;20224;-77
2022/04/15 12:05:21;;;;;;;11.73;9.67;;;;;;;;;;6097391;29;20245;-76
2022/04/15 12:08:43;;;;;;;10.17;9.10;;;;;;;;;;6088937;29;20232;-76
2022/04/15 12:12:06;;;;;;;11.93;10.73;;;;;;;;;;6076446;29;20241;-77
2022/04/15 12:15:28;;;;;;;12.40;10.27;;;;;;;;;;6098146;29;20253;-76
2022/04/15 12:18:48;;;;;;;11.90;10.73;;;;;;;;;;6081602;29;20318;-77
2022/04/15 12:22:09;;;;;;;12.73;11.00;;;;;;;;;;6099375;29;20241;-76
2022/04/15 12:26:05;;;;;;;13.57;11.30;;;;;;;;;;6094611;29;20324;-77
2022/04/15 12:33:05;;;;;;;11.17;9.90;;;;;;;;;;6098757;29;20252;-76
2022/04/15 12:36:26;;;;;;;12.47;11.27;;;;;;;;;;6102623;29;20255;-76
2022/04/15 12:39:52;;;;;;;9.97;8.47;;;;;;;;;;6099874;29;20240;-76
2022/04/15 12:43:15;;;;;;;11.43;8.20;;;;;;;;;;6099667;29;20228;-76
2022/04/15 12:46:35;;;;;;;8.80;8.00;;;;;;;;;;6099290;29;20256;-75
2022/04/15 12:50:11;;;;;;;7.73;6.93;;;;;;;;;;6105030;29;20323;-76
2022/04/15 12:53:37;;;;;;;8.23;6.87;;;;;;;;;;6099130;29;20243;-76
2022/04/15 12:56:57;;;;;;;7.53;6.70;;;;;;;;;;6090548;29;20244;-77
2022/04/15 13:00:19;;;;;;;7.83;7.13;;;;;;;;;;6096645;29;20232;-76
2022/04/15 13:03:50;;;;;;;10.10;9.07;;;;;;;;;;6102020;29;20237;-76
2022/04/15 13:07:11;;;;;;;8.13;7.33;;;;;;;;;;6085755;29;20225;-77
2022/04/15 13:10:32;;;;;;;8.57;7.77;;;;;;;;;;6095721;29;20330;-76
2022/04/15 13:13:53;;;;;;;7.77;7.07;;;;;;;;;;6098044;29;20275;-76
2022/04/15 13:17:15;;;;;;;8.83;7.93;;;;;;;;;;6101437;29;20236;-76
2022/04/15 13:20:36;;;;;;;9.30;6.80;;;;;;;;;;6100188;29;20327;-76
2022/04/15 13:23:59;;;;;;;7.60;6.90;;;;;;;;;;6095201;29;20240;-76
2022/04/15 13:27:20;;;;;;;7.83;7.03;;;;;;;;;;6096434;29;20228;-76
2022/04/15 13:30:42;;;;;;;7.70;7.00;;;;;;;;;;6102636;29;20232;-77
2022/04/15 13:34:04;;;;;;;11.07;9.03;;;;;;;;;;6096243;29;20354;-77
2022/04/15 13:37:24;;;;;;;9.30;8.43;;;;;;;;;;6093606;29;20328;-76
2022/04/15 13:40:46;;;;;;;10.03;8.77;;;;;;;;;;6092668;29;20507;-77
2022/04/15 13:44:06;;;;;;;10.93;9.83;;;;;;;;;;6095285;29;20553;-76
2022/04/15 13:47:27;;;;;;;12.90;11.60;;;;;;;;;;6093807;29;20344;-76
2022/04/15 13:50:48;;;;;;;15.93;12.00;;;;;;;;;;6095801;29;20220;-75
2022/04/15 13:57:57;;;;;;;10.70;9.60;;;;;;;;;;6406955;23;21335;-75
2022/04/15 14:08:34;;;;;;;8.47;7.70;;;;;;;;;;6216378;23;20237;-76
2022/04/15 14:11:58;;;;;;;7.67;6.87;;;;;;;;;;6100430;28;20237;-76
2022/04/15 14:26:56;;;;;;;8.30;6.97;;;;;;;;;;6080340;29;20237;-76
2022/04/15 14:30:17;;;;;;;9.30;7.57;;;;;;;;;;6094717;29;20237;-80
2022/04/15 14:33:38;;;;;;;9.73;8.47;;;;;;;;;;6069026;29;20233;-76
2022/04/15 14:36:59;;;;;;;7.50;6.17;;;;;;;;;;6068547;29;20229;-76
2022/04/15 14:40:20;;;;;;;9.73;7.53;;;;;;;;;;6068294;29;20237;-76
2022/04/15 14:43:42;;;;;;;8.57;7.67;;;;;;;;;;6077232;29;20596;-77
2022/04/15 14:47:04;;;;;;;11.40;8.33;;;;;;;;;;6061911;29;20245;-77
2022/04/15 14:50:26;;;;;;;8.73;7.57;;;;;;;;;;6070318;29;20238;-76
2022/04/15 14:53:46;;;;;;;9.60;8.73;;;;;;;;;;6074748;29;20229;-76
2022/04/15 14:57:07;;;;;;;10.53;9.53;;;;;;;;;;6059529;29;20310;-77
2022/04/15 15:00:30;;;;;;;11.07;9.00;;;;;;;;;;6076184;29;20788;-77
2022/04/15 15:03:50;;;;;;;9.10;8.20;;;;;;;;;;6065479;29;20708;-77
2022/04/15 15:07:10;;;;;;;9.50;8.50;;;;;;;;;;6069080;29;20290;-77
2022/04/15 15:10:31;;;;;;;9.87;8.63;;;;;;;;;;6073630;29;20538;-77
2022/04/15 15:13:52;;;;;;;10.17;9.17;;;;;;;;;;6085175;29;20320;-77
2022/04/15 15:17:15;;;;;;;16.90;10.70;;;;;;;;;;6078675;29;20236;-77
2022/04/15 15:20:36;;;;;;;14.70;11.97;;;;;;;;;;6074903;29;20692;-77
2022/04/15 15:31:12;;;;;;;13.60;12.20;;;;;;;;;;6060857;29;20225;-78
2022/04/15 15:34:34;;;;;;;15.63;11.87;;;;;;;;;;6065677;29;20303;-78
2022/04/15 15:37:54;;;;;;;12.40;10.97;;;;;;;;;;6071553;29;20241;-78
2022/04/15 15:41:16;;;;;;;13.27;11.77;;;;;;;;;;6065502;29;20499;-77
2022/04/15 15:44:36;;;;;;;14.10;12.40;;;;;;;;;;6063678;29;20931;-78
2022/04/15 15:47:58;;;;;;;14.83;11.90;;;;;;;;;;6076428;29;20236;-79
2022/04/15 15:51:20;;;;;;;16.47;14.10;;;;;;;;;;6062121;29;20286;-78
2022/04/15 15:54:40;;;;;;;16.83;13.27;;;;;;;;;;6071049;29;20225;-77
2022/04/15 15:58:01;;;;;;;14.00;12.63;;;;;;;;;;6063022;29;20242;-76
2022/04/15 16:01:21;;;;;;;14.60;12.80;;;;;;;;;;6072196;29;20248;-77
2022/04/15 16:04:42;;;;;;;13.47;11.93;;;;;;;;;;6082145;29;20396;-77
2022/04/15 16:08:04;;;;;;;15.20;13.63;;;;;;;;;;6082580;29;20622;-77
2022/04/15 16:11:25;;;;;;;15.13;13.47;;;;;;;;;;6070483;29;20248;-77
2022/04/15 16:14:45;;;;;;;14.60;13.20;;;;;;;;;;6076084;29;20225;-77
2022/04/15 16:18:06;;;;;;;13.30;12.00;;;;;;;;;;6081672;29;20593;-76
2022/04/15 16:21:27;;;;;;;16.43;14.63;;;;;;;;;;6069452;29;20611;-77
2022/04/15 16:24:49;;;;;;;14.27;12.87;;;;;;;;;;6068087;29;20233;-77
2022/04/15 16:28:11;;;;;;;14.57;13.07;;;;;;;;;;6067262;29;20233;-76
2022/04/15 16:31:32;;;;;;;13.50;12.23;;;;;;;;;;6069516;29;20232;-78
2022/04/15 16:34:53;;;;;;;14.70;13.13;;;;;;;;;;6073354;29;20229;-76
2022/04/15 16:38:13;;;;;;;14.80;13.40;;;;;;;;;;6070116;29;20312;-77
2022/04/15 16:41:35;;;;;;;13.20;11.77;;;;;;;;;;6076419;29;20238;-77
2022/04/15 16:44:56;;;;;;;14.27;12.80;;;;;;;;;;6072893;29;20340;-76
2022/04/15 16:48:16;;;;;;;13.37;11.93;;;;;;;;;;6064285;29;20237;-76
2022/04/15 16:51:40;;;;;;;14.33;12.20;;;;;;;;;;6057537;29;20230;-77
2022/04/15 16:58:41;;;;;;;11.10;9.37;;;;;;;;;;6065892;29;20505;-76
2022/04/15 17:02:02;;;;;;;10.90;9.83;;;;;;;;;;6062482;29;20241;-76
2022/04/15 17:05:23;;;;;;;10.83;9.77;;;;;;;;;;6091744;29;20730;-75
2022/04/15 17:08:43;;;;;;;11.53;10.33;;;;;;;;;;6072689;29;20592;-77
2022/04/15 17:12:06;;;;;;;12.37;10.43;;;;;;;;;;6065837;29;20230;-77
2022/04/15 17:15:28;;;;;;;12.30;10.77;;;;;;;;;;6076622;29;20301;-77
2022/04/15 17:18:48;;;;;;;11.93;10.47;;;;;;;;;;6091796;29;20236;-78
2022/04/15 17:22:09;;;;;;;14.67;11.17;;;;;;;;;;6088374;29;20233;-77
2022/04/15 17:25:30;;;;;;;11.70;10.53;;;;;;;;;;6073459;29;20237;-76
2022/04/15 17:28:51;;;;;;;10.70;9.60;;;;;;;;;;6068682;29;20241;-76
2022/04/15 17:32:13;;;;;;;10.93;9.83;;;;;;;;;;6065639;29;20315;-75
2022/04/15 17:35:33;;;;;;;11.77;9.97;;;;;;;;;;6073336;29;20245;-75
2022/04/15 17:38:54;;;;;;;10.43;9.40;;;;;;;;;;6066670;29;20233;-77
2022/04/15 17:42:14;;;;;;;12.00;10.03;;;;;;;;;;6059035;29;20640;-76
2022/04/15 17:45:36;;;;;;;9.43;8.53;;;;;;;;;;6069261;29;20245;-76
2022/04/15 17:48:58;;;;;;;9.77;8.80;;;;;;;;;;6066096;29;20616;-76
2022/04/15 17:52:18;;;;;;;11.50;8.97;;;;;;;;;;6064898;29;20260;-76
2022/04/15 17:55:39;;;;;;;9.80;8.80;;;;;;;;;;6064044;29;20237;-76
2022/04/15 17:59:00;;;;;;;11.13;9.13;;;;;;;;;;6069033;29;20380;-77
2022/04/15 18:02:20;;;;;;;11.00;8.63;;;;;;;;;;6072171;29;20225;-76
2022/04/15 18:05:42;;;;;;;10.10;9.17;;;;;;;;;;6070485;29;20238;-77
2022/04/15 18:09:03;;;;;;;13.43;9.77;;;;;;;;;;6075565;29;20676;-76
2022/04/15 18:12:23;;;;;;;13.50;10.07;;;;;;;;;;6072503;29;20689;-75
2022/04/15 18:15:44;;;;;;;9.80;8.87;;;;;;;;;;6077364;29;20523;-75
2022/04/15 18:19:09;;;;;;;13.70;10.70;;;;;;;;;;6066085;29;20238;-76
2022/04/15 18:22:30;;;;;;;12.13;9.77;;;;;;;;;;6078575;29;20233;-76
2022/04/15 18:25:51;;;;;;;12.30;10.27;;;;;;;;;;6069450;29;20671;-76
2022/04/15 18:29:11;;;;;;;11.40;10.20;;;;;;;;;;6067687;29;20229;-77
2022/04/15 18:32:32;;;;;;;10.43;9.33;;;;;;;;;;6092533;29;20240;-76
2022/04/15 18:35:52;;;;;;;10.30;9.30;;;;;;;;;;6067893;29;20312;-75
2022/04/15 18:39:14;;;;;;;11.00;9.30;;;;;;;;;;6069189;29;20229;-78
2022/04/15 18:42:35;;;;;;;12.27;10.07;;;;;;;;;;6075852;29;20511;-75
2022/04/15 18:45:56;;;;;;;13.57;12.17;;;;;;;;;;6062932;29;20229;-75
2022/04/15 18:53:09;;;;;;;11.10;9.87;;;;;;;;;;6013498;29;20237;-77
2022/04/15 18:56:30;;;;;;;10.93;9.70;;;;;;;;;;6020649;29;20285;-77
2022/04/15 18:59:51;;;;;;;12.87;11.47;;;;;;;;;;6072506;29;20236;-77
2022/04/15 19:03:15;;;;;;;13.33;9.57;;;;;;;;;;6084272;29;20233;-76
2022/04/15 19:06:36;;;;;;;10.50;9.43;;;;;;;;;;6076290;29;20242;-76
2022/04/15 19:09:57;;;;;;;14.23;11.67;;;;;;;;;;6075301;29;20241;-75
2022/04/15 19:13:19;;;;;;;11.47;9.57;;;;;;;;;;6069708;29;20623;-76
2022/04/15 19:16:40;;;;;;;11.17;9.87;;;;;;;;;;6068455;29;20228;-76
2022/04/15 19:20:01;;;;;;;12.07;9.77;;;;;;;;;;6092243;29;20237;-76
2022/04/15 19:23:22;;;;;;;12.60;10.93;;;;;;;;;;6075893;29;20237;-75
2022/04/15 19:26:42;;;;;;;14.70;11.90;;;;;;;;;;6085096;29;20245;-76
2022/04/15 19:30:04;;;;;;;12.97;11.53;;;;;;;;;;6066671;29;20271;-76
2022/04/15 19:33:25;;;;;;;11.67;10.47;;;;;;;;;;6069018;29;20233;-74
2022/04/15 19:36:45;;;;;;;15.43;11.43;;;;;;;;;;6069121;29;20234;-76
2022/04/15 19:40:07;;;;;;;12.57;11.27;;;;;;;;;;6064339;29;20244;-76
2022/04/15 19:43:27;;;;;;;12.70;10.23;;;;;;;;;;6079802;29;20245;-76
2022/04/15 19:46:49;;;;;;;11.27;10.03;;;;;;;;;;6071703;29;20233;-77
2022/04/15 19:50:10;;;;;;;12.63;10.80;;;;;;;;;;6063278;29;20226;-76
2022/04/15 19:53:31;;;;;;;13.00;10.57;;;;;;;;;;6070762;29;20233;-76
2022/04/15 20:04:09;;;;;;;14.83;11.53;;;;;;;;;;6074533;29;20237;-76
2022/04/15 20:07:30;;;;;;;13.07;11.60;;;;;;;;;;6089238;29;20255;-76
2022/04/15 20:10:51;;;;;;;14.07;10.93;;;;;;;;;;6083437;29;20620;-76
2022/04/15 20:14:12;;;;;;;13.67;11.63;;;;;;;;;;6058723;29;20249;-76
2022/04/15 20:17:33;;;;;;;14.63;11.37;;;;;;;;;;6078849;29;20245;-76
2022/04/15 20:20:55;;;;;;;16.17;12.33;;;;;;;;;;6069667;29;20237;-77
2022/04/15 20:24:16;;;;;;;14.97;11.33;;;;;;;;;;6072535;29;20309;-75
2022/04/15 20:27:46;;;;;;;13.03;10.47;;;;;;;;;;6066983;29;20687;-76
2022/04/15 20:31:07;;;;;;;14.10;11.40;;;;;;;;;;6064520;29;20237;-77
2022/04/15 20:34:27;;;;;;;14.37;11.40;;;;;;;;;;6065098;29;20245;-76
2022/04/15 20:37:50;;;;;;;13.63;11.07;;;;;;;;;;6064460;29;20226;-76